Kezdőlap
METAR-TAF:

METAR-TAF

Repülőterek :

Muscatine, Iowa, Amerikai Egyesült Államok

földrajzi szélesség: 41-22N, földrajzi hosszúság: 091-09W, magasság: 167 m

Jelenlegi meteorológiai megfigyelések

A jelentés 24 perccel ezelõtt készült, 09:35 UTC
Szélcsend
Hőmérséklet 7°C
Páratartalom 93%
Légköri nyomás 1002 hPa
Látótávolság: 16.1 km
Borult 1100 lábon

METAR: KMUT 090935Z AUTO 00000KT 10SM OVC011 07/06 A2958 RMK AO2

Idő: 03:59 (09:59 UTC)


TAF: hiányzik

Meteorológiai megfigyelések és előrejelzések több, mint 4000 repülőtéren (METAR és TAF jelentéseket).

A térképen piros és sárga pontok jelzik az elérhető meteorológiai állomásokat.

Mozgassa az egeret a pont fölött, hogy megjelenjen az állomás neve.

Azután kattintson az időjárási megfigyelések és előrejelzések megtekintéséhez.

A térkép megváltoztatása: kattintson a fekete keresztel jelölt zöld gombra ráközelítéshez, a vonallal jelölt zöld gombra távolításhoz, vagy a zöld nyilakra a szomszédos térképek eléréséhez.


METAR-TAF: